sensor_id;sensor_type;location;lat;lon;timestamp;P1;durP1;ratioP1;P2;durP2;ratioP2
13269;SDS011;6703;51.994;7.570;2023-05-10T00:00:12;0.00;;;0.00;;
13269;SDS011;6703;51.994;7.570;2023-05-10T00:02:40;0.00;;;0.00;;
13269;SDS011;6703;51.994;7.570;2023-05-10T00:05:08;0.00;;;0.00;;
13269;SDS011;6703;51.994;7.570;2023-05-10T00:07:36;0.00;;;0.00;;
13269;SDS011;6703;51.994;7.570;2023-05-10T00:10:04;0.00;;;0.00;;
13269;SDS011;6703;51.994;7.570;2023-05-10T00:12:32;0.00;;;0.00;;
13269;SDS011;6703;51.994;7.570;2023-05-10T00:15:00;0.00;;;0.00;;
13269;SDS011;6703;51.994;7.570;2023-05-10T00:17:30;0.00;;;0.00;;
13269;SDS011;6703;51.994;7.570;2023-05-10T00:19:58;0.00;;;0.00;;
13269;SDS011;6703;51.994;7.570;2023-05-10T00:22:26;1.90;;;0.30;;
13269;SDS011;6703;51.994;7.570;2023-05-10T00:24:54;0.00;;;0.00;;
13269;SDS011;6703;51.994;7.570;2023-05-10T00:27:22;0.00;;;0.00;;
13269;SDS011;6703;51.994;7.570;2023-05-10T00:29:50;0.00;;;0.00;;
13269;SDS011;6703;51.994;7.570;2023-05-10T00:32:17;2.20;;;1.00;;
13269;SDS011;6703;51.994;7.570;2023-05-10T00:34:47;0.00;;;0.00;;
13269;SDS011;6703;51.994;7.570;2023-05-10T00:37:14;1.10;;;0.50;;
13269;SDS011;6703;51.994;7.570;2023-05-10T00:39:42;0.10;;;0.10;;
13269;SDS011;6703;51.994;7.570;2023-05-10T00:42:10;0.00;;;0.00;;
13269;SDS011;6703;51.994;7.570;2023-05-10T00:44:37;0.05;;;0.05;;
13269;SDS011;6703;51.994;7.570;2023-05-10T00:47:05;0.00;;;0.00;;
13269;SDS011;6703;51.994;7.570;2023-05-10T00:49:33;0.00;;;0.00;;
13269;SDS011;6703;51.994;7.570;2023-05-10T00:52:03;0.10;;;0.10;;
13269;SDS011;6703;51.994;7.570;2023-05-10T00:54:31;0.00;;;0.00;;
13269;SDS011;6703;51.994;7.570;2023-05-10T00:56:59;0.00;;;0.00;;
13269;SDS011;6703;51.994;7.570;2023-05-10T00:59:26;0.00;;;0.00;;
13269;SDS011;6703;51.994;7.570;2023-05-10T01:01:54;0.00;;;0.00;;
13269;SDS011;6703;51.994;7.570;2023-05-10T01:04:22;0.10;;;0.10;;
13269;SDS011;6703;51.994;7.570;2023-05-10T01:06:52;0.00;;;0.00;;
13269;SDS011;6703;51.994;7.570;2023-05-10T01:09:21;0.00;;;0.00;;
13269;SDS011;6703;51.994;7.570;2023-05-10T01:11:49;0.00;;;0.00;;
13269;SDS011;6703;51.994;7.570;2023-05-10T01:14:18;0.90;;;0.20;;
13269;SDS011;6703;51.994;7.570;2023-05-10T01:16:46;3.20;;;0.80;;
13269;SDS011;6703;51.994;7.570;2023-05-10T01:19:17;0.00;;;0.00;;
13269;SDS011;6703;51.994;7.570;2023-05-10T01:21:48;0.00;;;0.00;;
13269;SDS011;6703;51.994;7.570;2023-05-10T01:24:44;0.00;;;0.00;;
13269;SDS011;6703;51.994;7.570;2023-05-10T01:27:45;0.00;;;0.00;;
13269;SDS011;6703;51.994;7.570;2023-05-10T01:30:30;0.00;;;0.00;;
13269;SDS011;6703;51.994;7.570;2023-05-10T01:33:10;0.00;;;0.00;;
13269;SDS011;6703;51.994;7.570;2023-05-10T01:35:40;0.00;;;0.00;;
13269;SDS011;6703;51.994;7.570;2023-05-10T01:38:14;0.00;;;0.00;;
13269;SDS011;6703;51.994;7.570;2023-05-10T01:40:48;0.00;;;0.00;;
13269;SDS011;6703;51.994;7.570;2023-05-10T01:43:21;0.00;;;0.00;;
13269;SDS011;6703;51.994;7.570;2023-05-10T01:45:54;0.00;;;0.00;;
13269;SDS011;6703;51.994;7.570;2023-05-10T01:48:28;0.00;;;0.00;;
13269;SDS011;6703;51.994;7.570;2023-05-10T01:50:57;0.00;;;0.00;;
13269;SDS011;6703;51.994;7.570;2023-05-10T01:53:25;0.00;;;0.00;;
13269;SDS011;6703;51.994;7.570;2023-05-10T01:55:53;0.00;;;0.00;;
13269;SDS011;6703;51.994;7.570;2023-05-10T01:58:22;0.00;;;0.00;;
13269;SDS011;6703;51.994;7.570;2023-05-10T02:01:06;0.00;;;0.00;;
13269;SDS011;6703;51.994;7.570;2023-05-10T02:03:36;0.00;;;0.00;;
13269;SDS011;6703;51.994;7.570;2023-05-10T02:06:06;0.00;;;0.00;;
13269;SDS011;6703;51.994;7.570;2023-05-10T02:08:34;0.00;;;0.00;;
13269;SDS011;6703;51.994;7.570;2023-05-10T02:11:03;0.00;;;0.00;;
13269;SDS011;6703;51.994;7.570;2023-05-10T02:13:32;0.00;;;0.00;;
13269;SDS011;6703;51.994;7.570;2023-05-10T02:16:01;0.00;;;0.00;;
13269;SDS011;6703;51.994;7.570;2023-05-10T02:18:29;0.10;;;0.10;;
13269;SDS011;6703;51.994;7.570;2023-05-10T02:20:58;0.00;;;0.00;;
13269;SDS011;6703;51.994;7.570;2023-05-10T02:23:27;0.00;;;0.00;;
13269;SDS011;6703;51.994;7.570;2023-05-10T02:25:56;0.10;;;0.10;;
13269;SDS011;6703;51.994;7.570;2023-05-10T02:28:24;0.00;;;0.00;;
13269;SDS011;6703;51.994;7.570;2023-05-10T02:30:53;0.00;;;0.00;;
13269;SDS011;6703;51.994;7.570;2023-05-10T02:33:22;0.00;;;0.00;;
13269;SDS011;6703;51.994;7.570;2023-05-10T02:35:50;0.00;;;0.00;;
13269;SDS011;6703;51.994;7.570;2023-05-10T02:38:20;0.00;;;0.00;;
13269;SDS011;6703;51.994;7.570;2023-05-10T02:40:48;0.00;;;0.00;;
13269;SDS011;6703;51.994;7.570;2023-05-10T02:43:16;0.00;;;0.00;;
13269;SDS011;6703;51.994;7.570;2023-05-10T02:45:44;0.52;;;0.22;;
13269;SDS011;6703;51.994;7.570;2023-05-10T02:48:14;0.00;;;0.00;;
13269;SDS011;6703;51.994;7.570;2023-05-10T02:50:43;0.00;;;0.00;;
13269;SDS011;6703;51.994;7.570;2023-05-10T02:53:15;0.00;;;0.00;;
13269;SDS011;6703;51.994;7.570;2023-05-10T02:55:45;0.00;;;0.00;;
13269;SDS011;6703;51.994;7.570;2023-05-10T02:58:13;0.00;;;0.00;;
13269;SDS011;6703;51.994;7.570;2023-05-10T03:00:41;0.00;;;0.00;;
13269;SDS011;6703;51.994;7.570;2023-05-10T03:03:09;0.00;;;0.00;;
13269;SDS011;6703;51.994;7.570;2023-05-10T03:05:37;0.00;;;0.00;;
13269;SDS011;6703;51.994;7.570;2023-05-10T03:08:05;0.00;;;0.00;;
13269;SDS011;6703;51.994;7.570;2023-05-10T03:10:32;0.00;;;0.00;;
13269;SDS011;6703;51.994;7.570;2023-05-10T03:13:05;0.00;;;0.00;;
13269;SDS011;6703;51.994;7.570;2023-05-10T03:15:38;0.00;;;0.00;;
13269;SDS011;6703;51.994;7.570;2023-05-10T03:18:12;0.00;;;0.00;;
13269;SDS011;6703;51.994;7.570;2023-05-10T03:20:43;0.00;;;0.00;;
13269;SDS011;6703;51.994;7.570;2023-05-10T03:23:16;0.00;;;0.00;;
13269;SDS011;6703;51.994;7.570;2023-05-10T03:25:48;0.40;;;0.40;;
13269;SDS011;6703;51.994;7.570;2023-05-10T03:28:19;0.00;;;0.00;;
13269;SDS011;6703;51.994;7.570;2023-05-10T03:30:48;0.00;;;0.00;;
13269;SDS011;6703;51.994;7.570;2023-05-10T03:33:17;4.18;;;0.47;;
13269;SDS011;6703;51.994;7.570;2023-05-10T03:35:44;0.00;;;0.00;;
13269;SDS011;6703;51.994;7.570;2023-05-10T03:38:12;0.00;;;0.00;;
13269;SDS011;6703;51.994;7.570;2023-05-10T03:40:40;0.00;;;0.00;;
13269;SDS011;6703;51.994;7.570;2023-05-10T03:43:08;0.00;;;0.00;;
13269;SDS011;6703;51.994;7.570;2023-05-10T03:45:37;0.00;;;0.00;;
13269;SDS011;6703;51.994;7.570;2023-05-10T03:48:05;0.00;;;0.00;;
13269;SDS011;6703;51.994;7.570;2023-05-10T03:50:33;0.00;;;0.00;;
13269;SDS011;6703;51.994;7.570;2023-05-10T03:53:01;0.00;;;0.00;;
13269;SDS011;6703;51.994;7.570;2023-05-10T03:55:29;0.00;;;0.00;;
13269;SDS011;6703;51.994;7.570;2023-05-10T03:58:00;0.00;;;0.00;;
13269;SDS011;6703;51.994;7.570;2023-05-10T04:00:28;0.05;;;0.05;;
13269;SDS011;6703;51.994;7.570;2023-05-10T04:02:57;0.00;;;0.00;;
13269;SDS011;6703;51.994;7.570;2023-05-10T04:05:26;0.00;;;0.00;;
13269;SDS011;6703;51.994;7.570;2023-05-10T04:07:53;0.40;;;0.40;;
13269;SDS011;6703;51.994;7.570;2023-05-10T04:10:21;0.40;;;0.20;;
13269;SDS011;6703;51.994;7.570;2023-05-10T04:12:49;0.00;;;0.00;;
13269;SDS011;6703;51.994;7.570;2023-05-10T04:15:17;0.00;;;0.00;;
13269;SDS011;6703;51.994;7.570;2023-05-10T04:17:44;0.00;;;0.00;;
13269;SDS011;6703;51.994;7.570;2023-05-10T04:20:14;0.00;;;0.00;;
13269;SDS011;6703;51.994;7.570;2023-05-10T04:22:42;0.00;;;0.00;;
13269;SDS011;6703;51.994;7.570;2023-05-10T04:25:10;0.00;;;0.00;;
13269;SDS011;6703;51.994;7.570;2023-05-10T04:27:38;0.00;;;0.00;;
13269;SDS011;6703;51.994;7.570;2023-05-10T04:30:07;0.00;;;0.00;;
13269;SDS011;6703;51.994;7.570;2023-05-10T04:32:35;0.00;;;0.00;;
13269;SDS011;6703;51.994;7.570;2023-05-10T04:35:03;0.17;;;0.17;;
13269;SDS011;6703;51.994;7.570;2023-05-10T04:37:32;0.00;;;0.00;;
13269;SDS011;6703;51.994;7.570;2023-05-10T04:40:00;0.00;;;0.00;;
13269;SDS011;6703;51.994;7.570;2023-05-10T04:42:29;0.00;;;0.00;;
13269;SDS011;6703;51.994;7.570;2023-05-10T04:44:57;0.10;;;0.10;;
13269;SDS011;6703;51.994;7.570;2023-05-10T04:47:24;0.00;;;0.00;;
13269;SDS011;6703;51.994;7.570;2023-05-10T04:49:52;0.15;;;0.15;;
13269;SDS011;6703;51.994;7.570;2023-05-10T04:52:20;0.10;;;0.10;;
13269;SDS011;6703;51.994;7.570;2023-05-10T04:54:49;0.10;;;0.10;;
13269;SDS011;6703;51.994;7.570;2023-05-10T04:57:17;0.00;;;0.00;;
13269;SDS011;6703;51.994;7.570;2023-05-10T04:59:44;0.00;;;0.00;;
13269;SDS011;6703;51.994;7.570;2023-05-10T05:02:15;0.00;;;0.00;;
13269;SDS011;6703;51.994;7.570;2023-05-10T05:04:43;0.00;;;0.00;;
13269;SDS011;6703;51.994;7.570;2023-05-10T05:07:10;0.00;;;0.00;;
13269;SDS011;6703;51.994;7.570;2023-05-10T05:09:38;0.40;;;0.40;;
13269;SDS011;6703;51.994;7.570;2023-05-10T05:12:07;0.00;;;0.00;;
13269;SDS011;6703;51.994;7.570;2023-05-10T05:14:40;0.00;;;0.00;;
13269;SDS011;6703;51.994;7.570;2023-05-10T05:17:08;0.00;;;0.00;;
13269;SDS011;6703;51.994;7.570;2023-05-10T05:19:35;0.15;;;0.15;;
13269;SDS011;6703;51.994;7.570;2023-05-10T05:22:03;0.00;;;0.00;;
13269;SDS011;6703;51.994;7.570;2023-05-10T05:24:34;0.00;;;0.00;;
13269;SDS011;6703;51.994;7.570;2023-05-10T05:27:04;0.00;;;0.00;;
13269;SDS011;6703;51.994;7.570;2023-05-10T05:29:33;0.00;;;0.00;;
13269;SDS011;6703;51.994;7.570;2023-05-10T05:32:01;0.00;;;0.00;;
13269;SDS011;6703;51.994;7.570;2023-05-10T05:34:29;0.00;;;0.00;;
13269;SDS011;6703;51.994;7.570;2023-05-10T05:36:57;0.00;;;0.00;;
13269;SDS011;6703;51.994;7.570;2023-05-10T05:39:25;1.50;;;0.60;;
13269;SDS011;6703;51.994;7.570;2023-05-10T05:41:52;0.30;;;0.10;;
13269;SDS011;6703;51.994;7.570;2023-05-10T05:44:20;0.00;;;0.00;;
13269;SDS011;6703;51.994;7.570;2023-05-10T05:46:49;0.00;;;0.00;;
13269;SDS011;6703;51.994;7.570;2023-05-10T05:49:17;0.60;;;0.43;;
13269;SDS011;6703;51.994;7.570;2023-05-10T05:51:45;0.70;;;0.60;;
13269;SDS011;6703;51.994;7.570;2023-05-10T05:54:13;0.00;;;0.00;;
13269;SDS011;6703;51.994;7.570;2023-05-10T05:56:41;0.10;;;0.10;;
13269;SDS011;6703;51.994;7.570;2023-05-10T05:59:10;0.20;;;0.20;;
13269;SDS011;6703;51.994;7.570;2023-05-10T06:01:38;0.20;;;0.20;;
13269;SDS011;6703;51.994;7.570;2023-05-10T06:04:07;1.15;;;0.85;;
13269;SDS011;6703;51.994;7.570;2023-05-10T06:06:35;0.10;;;0.10;;
13269;SDS011;6703;51.994;7.570;2023-05-10T06:09:02;1.50;;;0.88;;
13269;SDS011;6703;51.994;7.570;2023-05-10T06:11:30;0.40;;;0.40;;
13269;SDS011;6703;51.994;7.570;2023-05-10T06:13:59;0.60;;;0.50;;
13269;SDS011;6703;51.994;7.570;2023-05-10T06:16:27;0.85;;;0.60;;
13269;SDS011;6703;51.994;7.570;2023-05-10T06:18:55;0.13;;;0.13;;
13269;SDS011;6703;51.994;7.570;2023-05-10T06:21:24;0.30;;;0.30;;
13269;SDS011;6703;51.994;7.570;2023-05-10T06:23:52;0.10;;;0.10;;
13269;SDS011;6703;51.994;7.570;2023-05-10T06:26:20;0.03;;;0.03;;
13269;SDS011;6703;51.994;7.570;2023-05-10T06:28:48;0.10;;;0.10;;
13269;SDS011;6703;51.994;7.570;2023-05-10T06:31:16;1.00;;;0.80;;
13269;SDS011;6703;51.994;7.570;2023-05-10T06:33:44;0.30;;;0.30;;
13269;SDS011;6703;51.994;7.570;2023-05-10T06:36:12;4.10;;;1.02;;
13269;SDS011;6703;51.994;7.570;2023-05-10T06:38:41;3.90;;;0.60;;
13269;SDS011;6703;51.994;7.570;2023-05-10T06:41:09;0.20;;;0.20;;
13269;SDS011;6703;51.994;7.570;2023-05-10T06:43:37;0.08;;;0.08;;
13269;SDS011;6703;51.994;7.570;2023-05-10T06:46:07;0.20;;;0.20;;
13269;SDS011;6703;51.994;7.570;2023-05-10T06:48:35;0.75;;;0.60;;
13269;SDS011;6703;51.994;7.570;2023-05-10T06:51:03;0.10;;;0.10;;
13269;SDS011;6703;51.994;7.570;2023-05-10T06:53:31;0.10;;;0.10;;
13269;SDS011;6703;51.994;7.570;2023-05-10T06:56:00;4.20;;;1.60;;
13269;SDS011;6703;51.994;7.570;2023-05-10T06:58:29;0.00;;;0.00;;
13269;SDS011;6703;51.994;7.570;2023-05-10T07:01:01;0.32;;;0.32;;
13269;SDS011;6703;51.994;7.570;2023-05-10T07:03:30;0.40;;;0.40;;
13269;SDS011;6703;51.994;7.570;2023-05-10T07:06:01;0.00;;;0.00;;
13269;SDS011;6703;51.994;7.570;2023-05-10T07:08:30;0.50;;;0.50;;
13269;SDS011;6703;51.994;7.570;2023-05-10T07:11:03;0.20;;;0.20;;
13269;SDS011;6703;51.994;7.570;2023-05-10T07:13:33;6.50;;;2.05;;
13269;SDS011;6703;51.994;7.570;2023-05-10T07:16:02;0.90;;;0.20;;
13269;SDS011;6703;51.994;7.570;2023-05-10T07:18:32;0.30;;;0.30;;
13269;SDS011;6703;51.994;7.570;2023-05-10T07:21:00;0.10;;;0.10;;
13269;SDS011;6703;51.994;7.570;2023-05-10T07:23:28;0.10;;;0.10;;
13269;SDS011;6703;51.994;7.570;2023-05-10T07:25:56;0.70;;;0.65;;
13269;SDS011;6703;51.994;7.570;2023-05-10T07:28:25;0.70;;;0.70;;
13269;SDS011;6703;51.994;7.570;2023-05-10T07:30:53;1.50;;;1.00;;
13269;SDS011;6703;51.994;7.570;2023-05-10T07:33:21;1.20;;;0.73;;
13269;SDS011;6703;51.994;7.570;2023-05-10T07:35:49;0.08;;;0.08;;
13269;SDS011;6703;51.994;7.570;2023-05-10T07:38:17;0.30;;;0.30;;
13269;SDS011;6703;51.994;7.570;2023-05-10T07:43:36;0.10;;;0.10;;
13269;SDS011;6703;51.994;7.570;2023-05-10T07:46:04;0.50;;;0.50;;
13269;SDS011;6703;51.994;7.570;2023-05-10T07:48:32;0.00;;;0.00;;
13269;SDS011;6703;51.994;7.570;2023-05-10T07:51:00;0.00;;;0.00;;
13269;SDS011;6703;51.994;7.570;2023-05-10T07:53:28;0.30;;;0.30;;
13269;SDS011;6703;51.994;7.570;2023-05-10T07:55:57;0.60;;;0.40;;
13269;SDS011;6703;51.994;7.570;2023-05-10T07:58:25;0.00;;;0.00;;
13269;SDS011;6703;51.994;7.570;2023-05-10T08:01:08;0.50;;;0.50;;
13269;SDS011;6703;51.994;7.570;2023-05-10T08:03:36;0.32;;;0.32;;
13269;SDS011;6703;51.994;7.570;2023-05-10T08:06:04;0.50;;;0.50;;
13269;SDS011;6703;51.994;7.570;2023-05-10T08:08:33;0.35;;;0.35;;
13269;SDS011;6703;51.994;7.570;2023-05-10T08:11:00;0.60;;;0.30;;
13269;SDS011;6703;51.994;7.570;2023-05-10T08:13:28;2.53;;;1.10;;
13269;SDS011;6703;51.994;7.570;2023-05-10T08:15:57;0.28;;;0.28;;
13269;SDS011;6703;51.994;7.570;2023-05-10T08:18:26;0.08;;;0.08;;
13269;SDS011;6703;51.994;7.570;2023-05-10T08:20:54;0.20;;;0.20;;
13269;SDS011;6703;51.994;7.570;2023-05-10T08:23:22;0.38;;;0.38;;
13269;SDS011;6703;51.994;7.570;2023-05-10T08:25:50;0.20;;;0.20;;
13269;SDS011;6703;51.994;7.570;2023-05-10T08:28:17;4.82;;;0.38;;
13269;SDS011;6703;51.994;7.570;2023-05-10T08:30:45;1.20;;;0.20;;
13269;SDS011;6703;51.994;7.570;2023-05-10T08:33:13;0.27;;;0.23;;
13269;SDS011;6703;51.994;7.570;2023-05-10T08:35:42;0.00;;;0.00;;
13269;SDS011;6703;51.994;7.570;2023-05-10T08:38:10;1.30;;;0.80;;
13269;SDS011;6703;51.994;7.570;2023-05-10T08:40:39;0.40;;;0.40;;
13269;SDS011;6703;51.994;7.570;2023-05-10T08:43:10;0.60;;;0.50;;
13269;SDS011;6703;51.994;7.570;2023-05-10T08:45:39;0.40;;;0.30;;
13269;SDS011;6703;51.994;7.570;2023-05-10T08:48:09;0.10;;;0.10;;
13269;SDS011;6703;51.994;7.570;2023-05-10T08:50:38;0.68;;;0.45;;
13269;SDS011;6703;51.994;7.570;2023-05-10T08:53:09;0.30;;;0.30;;
13269;SDS011;6703;51.994;7.570;2023-05-10T08:55:38;0.00;;;0.00;;
13269;SDS011;6703;51.994;7.570;2023-05-10T08:58:08;0.25;;;0.25;;
13269;SDS011;6703;51.994;7.570;2023-05-10T09:00:36;2.80;;;0.80;;
13269;SDS011;6703;51.994;7.570;2023-05-10T09:03:05;0.40;;;0.40;;
13269;SDS011;6703;51.994;7.570;2023-05-10T09:05:33;0.70;;;0.70;;
13269;SDS011;6703;51.994;7.570;2023-05-10T09:08:01;0.25;;;0.25;;
13269;SDS011;6703;51.994;7.570;2023-05-10T09:10:30;2.20;;;1.30;;
13269;SDS011;6703;51.994;7.570;2023-05-10T09:12:58;0.00;;;0.00;;
13269;SDS011;6703;51.994;7.570;2023-05-10T09:15:26;1.75;;;0.45;;
13269;SDS011;6703;51.994;7.570;2023-05-10T09:17:54;0.10;;;0.10;;
13269;SDS011;6703;51.994;7.570;2023-05-10T09:20:23;0.60;;;0.60;;
13269;SDS011;6703;51.994;7.570;2023-05-10T09:22:51;0.40;;;0.40;;
13269;SDS011;6703;51.994;7.570;2023-05-10T09:25:19;0.80;;;0.57;;
13269;SDS011;6703;51.994;7.570;2023-05-10T09:27:49;0.10;;;0.10;;
13269;SDS011;6703;51.994;7.570;2023-05-10T09:30:17;3.00;;;0.90;;
13269;SDS011;6703;51.994;7.570;2023-05-10T09:32:46;0.68;;;0.55;;
13269;SDS011;6703;51.994;7.570;2023-05-10T09:35:15;0.40;;;0.40;;
13269;SDS011;6703;51.994;7.570;2023-05-10T09:37:45;1.10;;;0.90;;
13269;SDS011;6703;51.994;7.570;2023-05-10T09:40:15;0.63;;;0.63;;
13269;SDS011;6703;51.994;7.570;2023-05-10T09:42:51;1.20;;;0.90;;
13269;SDS011;6703;51.994;7.570;2023-05-10T09:45:20;1.25;;;0.70;;
13269;SDS011;6703;51.994;7.570;2023-05-10T09:51:10;0.50;;;0.30;;
13269;SDS011;6703;51.994;7.570;2023-05-10T09:53:38;0.40;;;0.40;;
13269;SDS011;6703;51.994;7.570;2023-05-10T09:56:05;0.30;;;0.30;;
13269;SDS011;6703;51.994;7.570;2023-05-10T09:58:36;0.80;;;0.80;;
13269;SDS011;6703;51.994;7.570;2023-05-10T10:01:05;0.55;;;0.55;;
13269;SDS011;6703;51.994;7.570;2023-05-10T10:03:41;0.63;;;0.63;;
13269;SDS011;6703;51.994;7.570;2023-05-10T10:06:09;0.60;;;0.60;;
13269;SDS011;6703;51.994;7.570;2023-05-10T10:08:54;0.57;;;0.57;;
13269;SDS011;6703;51.994;7.570;2023-05-10T10:11:22;2.90;;;1.20;;
13269;SDS011;6703;51.994;7.570;2023-05-10T10:13:52;0.30;;;0.30;;
13269;SDS011;6703;51.994;7.570;2023-05-10T10:16:20;0.50;;;0.50;;
13269;SDS011;6703;51.994;7.570;2023-05-10T10:18:48;0.73;;;0.73;;
13269;SDS011;6703;51.994;7.570;2023-05-10T10:21:15;0.13;;;0.13;;
13269;SDS011;6703;51.994;7.570;2023-05-10T10:23:44;0.40;;;0.40;;
13269;SDS011;6703;51.994;7.570;2023-05-10T10:26:11;0.20;;;0.20;;
13269;SDS011;6703;51.994;7.570;2023-05-10T10:28:41;0.05;;;0.05;;
13269;SDS011;6703;51.994;7.570;2023-05-10T10:31:21;1.20;;;1.10;;
13269;SDS011;6703;51.994;7.570;2023-05-10T10:33:55;0.70;;;0.70;;
13269;SDS011;6703;51.994;7.570;2023-05-10T10:36:27;0.90;;;0.70;;
13269;SDS011;6703;51.994;7.570;2023-05-10T10:38:55;1.00;;;0.70;;
13269;SDS011;6703;51.994;7.570;2023-05-10T10:41:30;1.50;;;0.52;;
13269;SDS011;6703;51.994;7.570;2023-05-10T10:47:00;0.30;;;0.30;;
13269;SDS011;6703;51.994;7.570;2023-05-10T10:49:38;1.70;;;1.00;;
13269;SDS011;6703;51.994;7.570;2023-05-10T10:52:13;0.00;;;0.00;;
13269;SDS011;6703;51.994;7.570;2023-05-10T10:54:46;0.30;;;0.20;;
13269;SDS011;6703;51.994;7.570;2023-05-10T10:57:17;3.50;;;0.60;;
13269;SDS011;6703;51.994;7.570;2023-05-10T10:59:47;0.45;;;0.45;;
13269;SDS011;6703;51.994;7.570;2023-05-10T11:05:24;0.13;;;0.13;;
13269;SDS011;6703;51.994;7.570;2023-05-10T11:08:08;1.00;;;0.52;;
13269;SDS011;6703;51.994;7.570;2023-05-10T11:10:38;0.70;;;0.50;;
13269;SDS011;6703;51.994;7.570;2023-05-10T11:13:07;0.10;;;0.10;;
13269;SDS011;6703;51.994;7.570;2023-05-10T11:15:36;0.00;;;0.00;;
13269;SDS011;6703;51.994;7.570;2023-05-10T11:18:19;0.10;;;0.10;;
13269;SDS011;6703;51.994;7.570;2023-05-10T11:20:50;0.20;;;0.20;;
13269;SDS011;6703;51.994;7.570;2023-05-10T11:23:18;0.40;;;0.40;;
13269;SDS011;6703;51.994;7.570;2023-05-10T11:25:47;3.45;;;0.43;;
13269;SDS011;6703;51.994;7.570;2023-05-10T11:28:16;0.40;;;0.40;;
13269;SDS011;6703;51.994;7.570;2023-05-10T11:31:04;0.70;;;0.30;;
13269;SDS011;6703;51.994;7.570;2023-05-10T11:33:43;0.98;;;0.60;;
13269;SDS011;6703;51.994;7.570;2023-05-10T11:36:11;0.20;;;0.20;;
13269;SDS011;6703;51.994;7.570;2023-05-10T11:38:39;6.10;;;1.10;;
13269;SDS011;6703;51.994;7.570;2023-05-10T11:41:07;2.77;;;1.07;;
13269;SDS011;6703;51.994;7.570;2023-05-10T11:43:35;1.27;;;1.05;;
13269;SDS011;6703;51.994;7.570;2023-05-10T11:46:04;0.50;;;0.50;;
13269;SDS011;6703;51.994;7.570;2023-05-10T11:48:32;1.90;;;1.25;;
13269;SDS011;6703;51.994;7.570;2023-05-10T11:51:02;23.88;;;8.40;;
13269;SDS011;6703;51.994;7.570;2023-05-10T11:53:30;30.60;;;12.70;;
13269;SDS011;6703;51.994;7.570;2023-05-10T11:56:02;24.92;;;11.27;;
13269;SDS011;6703;51.994;7.570;2023-05-10T11:58:31;23.77;;;11.88;;
13269;SDS011;6703;51.994;7.570;2023-05-10T12:00:59;20.35;;;9.15;;
13269;SDS011;6703;51.994;7.570;2023-05-10T12:03:27;23.02;;;10.82;;
13269;SDS011;6703;51.994;7.570;2023-05-10T12:05:56;21.63;;;10.00;;
13269;SDS011;6703;51.994;7.570;2023-05-10T12:08:26;22.80;;;10.10;;
13269;SDS011;6703;51.994;7.570;2023-05-10T12:11:03;17.92;;;6.97;;
13269;SDS011;6703;51.994;7.570;2023-05-10T12:13:36;18.63;;;8.65;;
13269;SDS011;6703;51.994;7.570;2023-05-10T12:16:12;13.73;;;5.97;;
13269;SDS011;6703;51.994;7.570;2023-05-10T12:18:40;13.77;;;6.72;;
13269;SDS011;6703;51.994;7.570;2023-05-10T12:21:23;15.52;;;6.72;;
13269;SDS011;6703;51.994;7.570;2023-05-10T12:23:52;17.85;;;8.35;;
13269;SDS011;6703;51.994;7.570;2023-05-10T12:26:21;18.35;;;8.20;;
13269;SDS011;6703;51.994;7.570;2023-05-10T12:28:50;15.63;;;8.02;;
13269;SDS011;6703;51.994;7.570;2023-05-10T12:31:18;17.02;;;7.55;;
13269;SDS011;6703;51.994;7.570;2023-05-10T12:33:46;16.38;;;7.25;;
13269;SDS011;6703;51.994;7.570;2023-05-10T12:36:15;18.50;;;7.55;;
13269;SDS011;6703;51.994;7.570;2023-05-10T12:38:45;19.50;;;7.72;;
13269;SDS011;6703;51.994;7.570;2023-05-10T12:41:16;16.17;;;7.32;;
13269;SDS011;6703;51.994;7.570;2023-05-10T12:43:44;16.15;;;7.45;;
13269;SDS011;6703;51.994;7.570;2023-05-10T12:46:13;14.88;;;7.00;;
13269;SDS011;6703;51.994;7.570;2023-05-10T12:48:43;13.93;;;6.40;;
13269;SDS011;6703;51.994;7.570;2023-05-10T12:51:12;10.70;;;5.90;;
13269;SDS011;6703;51.994;7.570;2023-05-10T12:53:43;13.10;;;5.73;;
13269;SDS011;6703;51.994;7.570;2023-05-10T12:56:16;13.63;;;6.32;;
13269;SDS011;6703;51.994;7.570;2023-05-10T12:58:44;14.67;;;6.63;;
13269;SDS011;6703;51.994;7.570;2023-05-10T13:01:14;13.07;;;5.28;;
13269;SDS011;6703;51.994;7.570;2023-05-10T13:03:42;13.82;;;6.03;;
13269;SDS011;6703;51.994;7.570;2023-05-10T13:06:10;12.48;;;5.70;;
13269;SDS011;6703;51.994;7.570;2023-05-10T13:08:39;12.43;;;5.40;;
13269;SDS011;6703;51.994;7.570;2023-05-10T13:11:07;10.32;;;4.53;;
13269;SDS011;6703;51.994;7.570;2023-05-10T13:13:36;11.38;;;5.45;;
13269;SDS011;6703;51.994;7.570;2023-05-10T13:16:04;20.88;;;9.43;;
13269;SDS011;6703;51.994;7.570;2023-05-10T13:18:32;18.55;;;8.98;;
13269;SDS011;6703;51.994;7.570;2023-05-10T13:21:00;24.50;;;10.00;;
13269;SDS011;6703;51.994;7.570;2023-05-10T13:23:30;21.23;;;8.68;;
13269;SDS011;6703;51.994;7.570;2023-05-10T13:25:57;19.73;;;8.67;;
13269;SDS011;6703;51.994;7.570;2023-05-10T13:28:25;23.10;;;9.80;;
13269;SDS011;6703;51.994;7.570;2023-05-10T13:30:55;20.70;;;9.23;;
13269;SDS011;6703;51.994;7.570;2023-05-10T13:33:22;20.15;;;9.82;;
13269;SDS011;6703;51.994;7.570;2023-05-10T13:35:58;24.42;;;10.45;;
13269;SDS011;6703;51.994;7.570;2023-05-10T13:38:25;28.27;;;10.45;;
13269;SDS011;6703;51.994;7.570;2023-05-10T13:40:53;26.92;;;11.23;;
13269;SDS011;6703;51.994;7.570;2023-05-10T13:43:21;21.45;;;10.90;;
13269;SDS011;6703;51.994;7.570;2023-05-10T13:45:49;25.27;;;11.32;;
13269;SDS011;6703;51.994;7.570;2023-05-10T13:48:18;22.95;;;10.57;;
13269;SDS011;6703;51.994;7.570;2023-05-10T13:50:46;22.70;;;10.30;;
13269;SDS011;6703;51.994;7.570;2023-05-10T13:53:14;23.08;;;10.43;;
13269;SDS011;6703;51.994;7.570;2023-05-10T13:55:41;22.42;;;10.45;;
13269;SDS011;6703;51.994;7.570;2023-05-10T13:58:09;22.48;;;10.18;;
13269;SDS011;6703;51.994;7.570;2023-05-10T14:00:37;23.05;;;10.18;;
13269;SDS011;6703;51.994;7.570;2023-05-10T14:03:04;21.83;;;9.70;;
13269;SDS011;6703;51.994;7.570;2023-05-10T14:05:36;18.02;;;7.43;;
13269;SDS011;6703;51.994;7.570;2023-05-10T14:08:04;16.73;;;7.43;;
13269;SDS011;6703;51.994;7.570;2023-05-10T14:10:33;17.00;;;8.05;;
13269;SDS011;6703;51.994;7.570;2023-05-10T14:13:01;15.75;;;7.88;;
13269;SDS011;6703;51.994;7.570;2023-05-10T14:15:29;19.25;;;7.85;;
13269;SDS011;6703;51.994;7.570;2023-05-10T14:17:57;15.77;;;7.28;;
13269;SDS011;6703;51.994;7.570;2023-05-10T14:20:25;18.58;;;8.45;;
13269;SDS011;6703;51.994;7.570;2023-05-10T14:22:54;23.27;;;9.17;;
13269;SDS011;6703;51.994;7.570;2023-05-10T14:25:22;19.48;;;8.10;;
13269;SDS011;6703;51.994;7.570;2023-05-10T14:27:50;20.20;;;9.45;;
13269;SDS011;6703;51.994;7.570;2023-05-10T14:30:20;20.00;;;8.63;;
13269;SDS011;6703;51.994;7.570;2023-05-10T14:32:48;21.40;;;9.07;;
13269;SDS011;6703;51.994;7.570;2023-05-10T14:35:16;21.70;;;9.18;;
13269;SDS011;6703;51.994;7.570;2023-05-10T14:37:45;17.77;;;8.48;;
13269;SDS011;6703;51.994;7.570;2023-05-10T14:40:14;19.55;;;8.40;;
13269;SDS011;6703;51.994;7.570;2023-05-10T14:45:35;18.92;;;8.70;;
13269;SDS011;6703;51.994;7.570;2023-05-10T14:48:02;20.02;;;9.07;;
13269;SDS011;6703;51.994;7.570;2023-05-10T14:50:31;21.25;;;9.35;;
13269;SDS011;6703;51.994;7.570;2023-05-10T14:53:02;18.80;;;8.48;;
13269;SDS011;6703;51.994;7.570;2023-05-10T14:55:32;21.63;;;9.27;;
13269;SDS011;6703;51.994;7.570;2023-05-10T14:58:01;21.02;;;8.70;;
13269;SDS011;6703;51.994;7.570;2023-05-10T15:00:29;19.48;;;9.40;;
13269;SDS011;6703;51.994;7.570;2023-05-10T15:02:57;16.63;;;8.65;;
13269;SDS011;6703;51.994;7.570;2023-05-10T15:05:26;19.55;;;9.00;;
13269;SDS011;6703;51.994;7.570;2023-05-10T15:07:54;17.88;;;8.45;;
13269;SDS011;6703;51.994;7.570;2023-05-10T15:10:22;17.88;;;7.88;;
13269;SDS011;6703;51.994;7.570;2023-05-10T15:12:51;15.95;;;7.15;;
13269;SDS011;6703;51.994;7.570;2023-05-10T15:15:19;17.92;;;7.85;;
13269;SDS011;6703;51.994;7.570;2023-05-10T15:17:47;17.27;;;8.43;;
13269;SDS011;6703;51.994;7.570;2023-05-10T15:20:15;18.67;;;8.95;;
13269;SDS011;6703;51.994;7.570;2023-05-10T15:22:43;19.45;;;8.93;;
13269;SDS011;6703;51.994;7.570;2023-05-10T15:25:10;15.55;;;7.88;;